• Join FlightAware (Why Join?)
  • Login
  • US Flag 
01:27AM EDT


 

Airport Tracker/Info


-or-


 

Live Flight TrackerFlight Track Log ✈ N717AN ✈ 30-Jul-2013 ✈ SBGR / GRU - KJFK

Flight Track Log - Related Links

Times and Time Zones

All times are in EDT time to prevent confusion due to time zone crossing. See the N717AN flight status page for this flight to view local times or setup timezone preferences in your user account.

Time Position Orientation Groundspeed Altitude Reporting Facility
EDT Latitude Longitude Course Direction KTS MPH feet Rate Location/Type
08:28PM -23.4310 -46.4720 90° East 130 150  Level FlightAware
08:28PM -23.4250 -46.4500 73° East 192 221 2,400 4,380 Climbing FlightAware
08:29PM -23.4200 -46.4320 73° East 189 217 3,400 2,400 Climbing FlightAware
08:29PM -23.4120 -46.4040 73° East 202 232 4,400 1,740 Climbing FlightAware
08:30PM -23.4070 -46.3890 70° East 221 254 4,700 1,320 Climbing FlightAware
08:30PM -23.4000 -46.3650 72° East 247 284 5,200 1,440 Climbing FlightAware
08:30PM -23.3920 -46.3400 71° East 268 308 5,700 1,980 Climbing FlightAware
08:31PM -23.3800 -46.3080 68° East 280 322 6,700 2,700 Climbing FlightAware
08:31PM -23.3610 -46.2900 41° Northeast 272 313 7,700 2,400 Climbing FlightAware
08:31PM -23.3490 -46.2830 28° Northeast 288 331 7,900 1,380 Climbing FlightAware
08:31PM -23.3310 -46.2740 25° Northeast 297 342 8,300 1,500 Climbing FlightAware
08:32PM -23.2960 -46.2600 20° North 328 377 8,900 1,500 Climbing FlightAware
08:32PM -23.2670 -46.2470 22° Northeast 345 397 9,400 1,200 Climbing FlightAware
08:32PM -23.2430 -46.2370 21° North 364 419 9,600 1,560 Climbing FlightAware
08:33PM -23.1830 -46.2150 19° North 385 443 10,800 1,980 Climbing FlightAware
08:33PM -23.1460 -46.2100 North 399 459 11,500 2,460 Climbing FlightAware
08:34PM -23.0790 -46.2130 358° North 404 465 13,100 2,580 Climbing FlightAware
08:34PM -23.0240 -46.2220 351° North 422 486 14,300 2,760 Climbing FlightAware
08:35PM -22.9540 -46.2330 352° North 410 472 16,200 2,520 Climbing FlightAware
08:36PM -22.8780 -46.2470 350° North 435 501 17,500 2,220 Climbing FlightAware
08:36PM -22.8050 -46.2570 353° North 441 507 19,000 2,340 Climbing FlightAware
08:37PM -22.7550 -46.2650 352° North 438 504 19,900 2,160 Climbing FlightAware
08:37PM -22.6800 -46.2760 352° North 454 522 21,200 2,100 Climbing FlightAware
08:38PM -22.6190 -46.2850 352° North 452 520 22,200 2,160 Climbing FlightAware
08:38PM -22.5420 -46.2970 352° North 456 525 23,600 2,100 Climbing FlightAware
08:39PM -22.4560 -46.3110 351° North 471 542 24,900 1,860 Climbing FlightAware
08:39PM -22.4020 -46.3190 352° North 467 537 25,700 1,680 Climbing FlightAware
08:40PM -22.3010 -46.3340 352° North 489 563 26,900 1,620 Climbing FlightAware
08:41PM -22.2100 -46.3480 352° North 500 575 28,000 1,440 Climbing FlightAware
08:42PM -22.1350 -46.3600 352° North 505 581 28,900 1,800 Climbing FlightAware
08:42PM -22.0190 -46.3780 352° North 504 580 30,500 2,280 Climbing FlightAware
08:43PM -21.9530 -46.3880 352° North 500 575 31,500 1,740 Climbing FlightAware
08:43PM -21.8730 -46.4000 352° North 501 577 32,400 1,260 Climbing FlightAware
08:44PM -21.7910 -46.4120 352° North 500 575 33,000 480 Climbing FlightAware
08:45PM -21.6990 -46.4260 352° North 503 579 33,000  Level FlightAware
08:45PM -21.6280 -46.4370 352° North 505 581 33,000  Level FlightAware
08:46PM -21.5490 -46.4490 352° North 505 581 33,000  Level FlightAware
08:46PM -21.4570 -46.4630 352° North 505 581 33,000  Level FlightAware
08:47PM -21.3770 -46.4750 352° North 505 581 33,000  Level FlightAware
08:47PM -21.3060 -46.4860 352° North 505 581 33,000  Level FlightAware
08:48PM -21.2130 -46.5000 352° North 506 582 33,000  Level FlightAware
08:49PM -21.1420 -46.5110 352° North 506 582 33,000  Level FlightAware
08:49PM -21.0610 -46.5230 352° North 507 583 33,000  Level FlightAware
08:50PM -20.9790 -46.5350 352° North 500 575 33,000  Level FlightAware
08:50PM -20.8850 -46.5500 352° North 507 583 33,000  Level FlightAware
08:51PM -20.8090 -46.5610 352° North 507 583 33,000  Level FlightAware
08:52PM -20.7250 -46.5740 352° North 507 583 33,000  Level FlightAware
08:52PM -20.6380 -46.5870 352° North 506 582 33,000  Level FlightAware
08:53PM -20.5610 -46.5980 352° North 506 582 33,000  Level FlightAware
08:53PM -20.4790 -46.6110 352° North 506 582 33,000  Level FlightAware
08:54PM -20.4000 -46.6260 350° North 505 581 33,000  Level FlightAware
08:54PM -20.3180 -46.6420 350° North 504 580 33,000  Level FlightAware
08:55PM -20.2350 -46.6570 350° North 505 581 33,000  Level FlightAware
08:56PM -20.1600 -46.6710 350° North 507 583 33,000  Level FlightAware
08:56PM -20.0770 -46.6860 350° North 509 586 33,000  Level FlightAware
08:57PM -19.9930 -46.7010 350° North 511 588 33,000  Level FlightAware
08:57PM -19.9090 -46.7160 350° North 512 589 33,000  Level FlightAware
08:58PM -19.8330 -46.7290 351° North 512 589 33,000  Level FlightAware
08:59PM -19.7500 -46.7440 350° North 511 588 33,000  Level FlightAware
08:59PM -19.6650 -46.7600 350° North 511 588 33,000  Level FlightAware
09:00PM -19.6100 -46.7700 350° North 512 589 33,000  Level FlightAware
09:00PM -19.5040 -46.7890 350° North 513 590 33,000  Level FlightAware
09:01PM -19.4160 -46.8040 351° North 513 590 33,000  Level FlightAware
09:01PM -19.3410 -46.8180 350° North 514 592 33,000  Level FlightAware
09:02PM -19.2650 -46.8320 350° North 513 590 33,000  Level FlightAware
09:03PM -19.1630 -46.8490 351° North 510 587 33,000  Level FlightAware
09:03PM -19.0790 -46.8620 352° North 508 585 33,000  Level FlightAware
09:04PM -19.0050 -46.8730 352° North 507 583 33,000  Level FlightAware
09:04PM -18.9220 -46.8860 352° North 506 582 33,000  Level FlightAware
09:05PM -18.8360 -46.8990 352° North 507 583 33,000  Level FlightAware
09:06PM -18.7690 -46.9100 351° North 507 583 33,000  Level FlightAware
09:06PM -18.6730 -46.9230 353° North 507 583 33,000  Level FlightAware
09:07PM -18.5970 -46.9330 353° North 507 583 33,000  Level FlightAware
09:07PM -18.5030 -46.9460 353° North 508 585 33,000  Level FlightAware
09:08PM -18.4240 -46.9560 353° North 509 586 33,000  Level FlightAware
09:09PM -18.3370 -46.9680 353° North 509 586 33,000  Level FlightAware
09:09PM -18.2480 -46.9800 353° North 510 587 33,000  Level FlightAware
09:10PM -18.1720 -46.9900 353° North 510 587 33,000  Level FlightAware
09:10PM -18.0880 -47.0010 353° North 510 587 33,000  Level FlightAware
09:11PM -18.0030 -47.0120 353° North 511 588 33,000  Level FlightAware
09:12PM -17.9180 -47.0240 352° North 511 588 33,000  Level FlightAware
09:12PM -17.8450 -47.0340 353° North 510 587 33,000  Level FlightAware
09:13PM -17.7580 -47.0450 353° North 511 588 33,000  Level FlightAware
09:13PM -17.6700 -47.0570 353° North 511 588 33,000  Level FlightAware
09:14PM -17.5940 -47.0670 353° North 510 587 33,000  Level FlightAware
09:14PM -17.5130 -47.0770 353° North 509 586 33,000  Level FlightAware
09:15PM -17.3970 -47.0940 352° North 509 586 33,000  Level FlightAware
09:16PM -17.3260 -47.1040 352° North 509 586 33,000  Level FlightAware
09:17PM -17.2060 -47.1220 352° North 512 589 33,000  Level FlightAware
09:17PM -17.1140 -47.1340 353° North 514 592 33,000  Level FlightAware
09:18PM -17.0270 -47.1480 351° North 514 592 33,000  Level FlightAware
09:18PM -16.9730 -47.1650 343° North 509 586 33,000  Level FlightAware
09:19PM -16.9080 -47.2020 331° Northwest 509 586 33,000  Level FlightAware
09:19PM -16.8320 -47.2470 330° Northwest 507 583 33,000  Level FlightAware
09:20PM -16.7460 -47.2970 331° Northwest 507 583 33,000  Level FlightAware
09:21PM -16.6740 -47.3390 331° Northwest 506 582 33,000  Level FlightAware
09:21PM -16.5910 -47.3870 331° Northwest 506 582 33,000  Level FlightAware
09:22PM -16.5620 -47.4040 331° Northwest 505 581 33,000 240 Level FlightAware
09:22PM -16.4730 -47.4550 331° Northwest 501 577 33,300 480 Climbing FlightAware
09:23PM -16.3880 -47.5040 331° Northwest 496 571 33,700 480 Climbing FlightAware
09:24PM -16.3200 -47.5430 331° Northwest 494 568 33,900 240 Climbing FlightAware
09:24PM -16.2590 -47.5790 330° Northwest 495 570 34,000 60 Climbing FlightAware
09:25PM -16.1790 -47.6250 331° Northwest 496 571 34,000  Level FlightAware
09:25PM -16.1070 -47.6660 331° Northwest 496 571 34,000  Level FlightAware
09:26PM -16.0470 -47.7010 331° Northwest 496 571 34,000  Level FlightAware
09:26PM -15.9760 -47.7420 331° Northwest 496 571 34,000  Level FlightAware
09:27PM -15.8960 -47.7870 332° Northwest 496 571 34,000  Level FlightAware
09:28PM -15.8360 -47.8220 331° Northwest 495 570 34,000  Level FlightAware
09:28PM -15.7660 -47.8620 331° Northwest 495 570 34,000  Level FlightAware
09:29PM -15.6860 -47.9080 331° Northwest 493 567 34,000  Level FlightAware
09:29PM -15.6150 -47.9490 331° Northwest 492 566 34,000  Level FlightAware
09:30PM -15.5570 -47.9820 331° Northwest 491 565 34,000  Level FlightAware
09:31PM -15.4760 -48.0280 331° Northwest 491 565 34,000  Level FlightAware
09:31PM -15.4060 -48.0680 331° Northwest 488 562 34,000  Level FlightAware
09:32PM -15.3500 -48.1000 331° Northwest 487 560 34,000  Level FlightAware
09:32PM -15.2780 -48.1410 331° Northwest 486 559 34,000  Level FlightAware
09:33PM -15.2120 -48.1790 331° Northwest 486 559 34,000  Level FlightAware
09:33PM -15.1400 -48.2200 331° Northwest 486 559 34,000  Level FlightAware
09:34PM -15.0610 -48.2650 331° Northwest 487 560 34,000  Level FlightAware
09:35PM -15.0010 -48.2990 331° Northwest 486 559 34,000  Level FlightAware
09:35PM -14.9240 -48.3430 331° Northwest 487 560 34,000  Level FlightAware
09:36PM -14.8550 -48.3820 331° Northwest 487 560 34,000  Level FlightAware
09:37PM -14.7780 -48.4260 331° Northwest 487 560 34,000  Level FlightAware
09:37PM -14.6860 -48.4780 331° Northwest 484 557 34,000  Level FlightAware
09:38PM -14.6110 -48.5200 332° Northwest 485 558 34,000  Level FlightAware
09:39PM -14.5320 -48.5650 331° Northwest 485 558 34,000  Level FlightAware
09:39PM -14.4520 -48.6110 331° Northwest 485 558 34,000  Level FlightAware
09:40PM -14.3880 -48.6470 331° Northwest 485 558 34,000  Level FlightAware
09:41PM -14.3280 -48.6820 331° Northwest 485 558 34,000  Level FlightAware
09:41PM -14.2680 -48.7160 331° Northwest 485 558 34,000  Level FlightAware
09:42PM -14.1770 -48.7680 331° Northwest 485 558 34,000  Level FlightAware
09:43PM -14.1160 -48.8030 331° Northwest 485 558 34,000  Level FlightAware
09:43PM -14.0550 -48.8380 331° Northwest 485 558 34,000  Level FlightAware
09:44PM -13.9910 -48.8740 331° Northwest 485 558 34,000  Level FlightAware
09:45PM -13.9310 -48.9080 331° Northwest 485 558 34,000  Level FlightAware
09:45PM -13.8710 -48.9430 330° Northwest 485 558 34,000  Level FlightAware
09:46PM -13.8100 -48.9780 331° Northwest 485 558 34,000  Level FlightAware
09:46PM -13.7500 -49.0120 331° Northwest 485 558 34,000  Level FlightAware
09:47PM -13.6890 -49.0470 331° Northwest 485 558 34,000  Level FlightAware
09:48PM -13.6290 -49.0810 331° Northwest 485 558 34,000  Level FlightAware
09:48PM -13.5680 -49.1160 331° Northwest 485 558 34,000  Level FlightAware
09:49PM -13.5080 -49.1500 331° Northwest 485 558 34,000  Level FlightAware
09:51PM -13.3139 -49.2294 338° Northwest  Level Estimated
09:52PM -13.1962 -49.2775 338° Northwest  Level Estimated
09:53PM -13.0785 -49.3255 338° Northwest  Level Estimated
09:54PM -12.9608 -49.3735 338° Northwest  Level Estimated
09:55PM -12.8431 -49.4214 338° Northwest  Level Estimated
09:56PM -12.7254 -49.4693 338° Northwest  Level Estimated
09:57PM -12.6077 -49.5171 338° Northwest  Level Estimated
09:58PM -12.4900 -49.5649 338° Northwest  Level Estimated
09:59PM -12.3723 -49.6127 338° Northwest  Level Estimated
10:00PM -12.2545 -49.6604 338° Northwest  Level Estimated
10:01PM -12.1368 -49.7080 338° Northwest  Level Estimated
10:01PM -11.8870 -50.0430 338° Northwest 474 545 34,000  Level FlightAware
10:01PM -11.8310 -50.0740 332° Northwest 474 545 34,000  Level FlightAware
10:02PM -11.7680 -50.1100 331° Northwest 474 545 34,000  Level FlightAware
10:03PM -11.6650 -50.1650 332° Northwest 474 545 34,000  Level FlightAware
10:04PM -11.5790 -50.2130 331° Northwest 474 545 34,000  Level FlightAware
10:04PM -11.5210 -50.2470 330° Northwest 474 545 34,000  Level FlightAware
10:05PM -11.4620 -50.2800 331° Northwest 474 545 34,000  Level FlightAware
10:06PM -11.3620 -50.3320 332° Northwest 474 545 34,000  Level FlightAware
10:06PM -11.2750 -50.3800 332° Northwest 473 544 34,000  Level FlightAware
10:07PM -11.2140 -50.4130 332° Northwest 473 544 34,000  Level FlightAware
10:08PM -11.1300 -50.4600 331° Northwest 473 544 34,000  Level FlightAware
10:08PM -11.0720 -50.4930 331° Northwest 473 544 34,000  Level FlightAware
10:09PM -10.9940 -50.5340 332° Northwest 474 545 34,000  Level FlightAware
10:10PM -10.8940 -50.5890 332° Northwest 475 547 34,000  Level FlightAware
10:10PM -10.8370 -50.6210 331° Northwest 475 547 34,000  Level FlightAware
10:11PM -10.7780 -50.6540 331° Northwest 475 547 34,000  Level FlightAware
10:11PM -10.7190 -50.6870 331° Northwest 475 547 34,000  Level FlightAware
10:12PM -10.6570 -50.7220 331° Northwest 475 547 34,000  Level FlightAware
10:13PM -10.5950 -50.7570 331° Northwest 475 547 34,000  Level FlightAware
10:14PM -10.3870 -50.8660 332° Northwest 477 549 34,000  Level FlightAware
10:15PM -10.2710 -50.9270 333° Northwest 479 551 34,000  Level FlightAware
10:16PM -10.2060 -50.9610 333° Northwest 479 551 34,000  Level FlightAware
10:16PM -10.1450 -50.9920 333° Northwest 479 551 34,000  Level FlightAware
10:17PM -10.0830 -51.0240 333° Northwest 479 551 34,000  Level FlightAware
10:17PM -10.0210 -51.0570 332° Northwest 479 551 34,000  Level FlightAware
10:18PM -9.9610 -51.0880 333° Northwest 479 551 34,000  Level FlightAware
10:19PM -9.9000 -51.1190 333° Northwest 479 551 34,000  Level FlightAware
10:19PM -9.8380 -51.1510 333° Northwest 479 551 34,000  Level FlightAware
10:20PM -9.7640 -51.1890 333° Northwest 479 551 34,000  Level FlightAware
10:20PM -9.7070 -51.2190 333° Northwest 479 551 34,000  Level FlightAware
10:21PM -9.6450 -51.2510 333° Northwest 479 551 34,000  Level FlightAware
10:22PM -9.5950 -51.2770 333° Northwest 479 551 34,000  Level FlightAware
10:22PM -9.5340 -51.3080 333° Northwest 479 551 34,000  Level FlightAware
10:23PM -9.4740 -51.3390 333° Northwest 479 551 34,000  Level FlightAware
10:23PM -9.4130 -51.3710 333° Northwest 479 551 34,000  Level FlightAware
10:24PM -9.3530 -51.4020 333° Northwest 479 551 34,000  Level FlightAware
10:25PM -9.2930 -51.4330 333° Northwest 479 551 34,000  Level FlightAware
10:27PM -9.0682 -51.5199 339° North  Level Estimated
10:28PM -8.9499 -51.5655 339° North  Level Estimated
10:29PM -8.8315 -51.6112 339° North  Level Estimated
10:30PM -8.7132 -51.6568 339° North  Level Estimated
10:31PM -8.5949 -51.7024 339° North  Level Estimated
10:32PM -8.4765 -51.7479 339° North  Level Estimated
10:33PM -8.3582 -51.7934 339° North  Level Estimated
10:34PM -8.2398 -51.8389 339° North  Level Estimated
10:35PM -8.1215 -51.8844 339° North  Level Estimated
10:36PM -8.0031 -51.9299 339° North  Level Estimated
10:37PM -7.8847 -51.9753 339° North  Level Estimated
10:38PM -7.7664 -52.0207 339° North  Level Estimated
10:39PM -7.6480 -52.0660 339° North  Level Estimated
10:40PM -7.5296 -52.1114 339° North  Level Estimated
10:41PM -7.4112 -52.1567 339° North  Level Estimated
10:42PM -7.2928 -52.2020 339° North  Level Estimated
10:43PM -7.1744 -52.2472 339° North  Level Estimated
10:44PM -7.0560 -52.2925 339° North  Level Estimated
10:45PM -6.9376 -52.3377 339° North  Level Estimated
10:46PM -6.8192 -52.3829 339° North  Level Estimated
10:47PM -6.7008 -52.4281 339° North  Level Estimated
10:48PM -6.5824 -52.4732 339° North  Level Estimated
10:49PM -6.4640 -52.5184 339° North  Level Estimated
10:50PM -6.3455 -52.5635 339° North  Level Estimated
10:51PM -6.2271 -52.6086 339° North  Level Estimated
10:52PM -6.1087 -52.6536 339° North  Level Estimated
10:53PM -5.9902 -52.6987 339° North  Level Estimated
10:54PM -5.8718 -52.7437 339° North  Level Estimated
10:55PM -5.7533 -52.7887 339° North  Level Estimated
10:56PM -5.6349 -52.8337 339° North  Level Estimated
10:57PM -5.5164 -52.8787 339° North  Level Estimated
10:58PM -5.3980 -52.9237 339° North  Level Estimated
10:59PM -5.2795 -52.9686 339° North  Level Estimated
11:00PM -5.1611 -53.0135 339° North  Level Estimated
11:01PM -5.0426 -53.0584 339° North  Level Estimated
11:02PM -4.9241 -53.1033 339° North  Level Estimated
11:03PM -4.8057 -53.1482 339° North  Level Estimated
11:04PM -4.6872 -53.1931 339° North  Level Estimated
11:05PM -4.5687 -53.2379 339° North  Level Estimated
11:06PM -4.4502 -53.2827 339° North  Level Estimated
11:07PM -4.3317 -53.3275 339° North  Level Estimated
11:08PM -4.2133 -53.3723 339° North  Level Estimated
11:09PM -4.0948 -53.4171 339° North  Level Estimated
11:10PM -3.9763 -53.4619 339° North  Level Estimated
11:11PM -3.8578 -53.5066 339° North  Level Estimated
11:12PM -3.7393 -53.5514 339° North  Level Estimated
11:13PM -3.6208 -53.5961 339° North  Level Estimated
11:14PM -3.5023 -53.6409 339° North  Level Estimated
11:15PM -3.3838 -53.6856 339° North  Level Estimated
11:16PM -3.2653 -53.7303 339° North  Level Estimated
11:17PM -3.1468 -53.7749 339° North  Level Estimated
11:18PM -3.0283 -53.8196 339° North  Level Estimated
11:19PM -2.9097 -53.8643 339° North  Level Estimated
11:20PM -2.7899 -53.9095 339° North  Level Estimated
11:21PM -2.6701 -53.9546 339° North  Level Estimated
11:22PM -2.5503 -53.9997 339° North  Level Estimated
11:23PM -2.4305 -54.0448 339° North  Level Estimated
11:24PM -2.3107 -54.0900 339° North  Level Estimated
11:25PM -2.1909 -54.1351 339° North  Level Estimated
11:26PM -2.0711 -54.1802 339° North  Level Estimated
11:27PM -1.9512 -54.2253 339° North  Level Estimated
11:28PM -1.8314 -54.2703 339° North  Level Estimated
11:29PM -1.7116 -54.3154 339° North  Level Estimated
11:30PM -1.5918 -54.3605 339° North  Level Estimated
11:31PM -1.4720 -54.4056 339° North  Level Estimated
11:32PM -1.3521 -54.4506 339° North  Level Estimated
11:33PM -1.2323 -54.4957 339° North  Level Estimated
11:34PM -1.1125 -54.5407 339° North  Level Estimated
11:35PM -0.9927 -54.5858 339° North  Level Estimated
11:36PM -0.8728 -54.6309 339° North  Level Estimated
11:37PM -0.7530 -54.6759 339° North  Level Estimated
11:38PM -0.6332 -54.7209 339° North  Level Estimated
11:39PM -0.5134 -54.7660 339° North  Level Estimated
11:40PM -0.3935 -54.8110 339° North  Level Estimated
11:41PM -0.2737 -54.8561 339° North  Level Estimated
11:42PM -0.1539 -54.9011 339° North  Level Estimated
11:43PM -0.0340 -54.9461 339° North  Level Estimated
11:44PM 0.0858 -54.9912 339° North  Level Estimated
11:45PM 0.2056 -55.0362 339° North  Level Estimated
11:46PM 0.3255 -55.0813 339° North  Level Estimated
11:47PM 0.4453 -55.1263 339° North  Level Estimated
11:48PM 0.5651 -55.1713 339° North  Level Estimated
11:49PM 0.6849 -55.2164 339° North  Level Estimated
11:50PM 0.8048 -55.2614 339° North  Level Estimated
11:51PM 0.9246 -55.3065 339° North  Level Estimated
11:52PM 1.0444 -55.3515 339° North  Level Estimated
11:53PM 1.1643 -55.3966 339° North  Level Estimated
11:54PM 1.2841 -55.4416 339° North  Level Estimated
11:55PM 1.4039 -55.4867 339° North  Level Estimated
11:56PM 1.5237 -55.5318 339° North  Level Estimated
11:57PM 1.6435 -55.5768 339° North  Level Estimated
11:58PM 1.7634 -55.6219 339° North  Level Estimated
11:59PM 1.8832 -55.6670 339° North  Level Estimated
12:00AM 2.0030 -55.7121 339° North  Level Estimated
12:01AM 2.1228 -55.7572 339° North  Level Estimated
12:02AM 2.2426 -55.8023 339° North  Level Estimated
12:03AM 2.3624 -55.8474 339° North  Level Estimated
12:04AM 2.4823 -55.8925 339° North  Level Estimated
12:05AM 2.6021 -55.9376 339° North  Level Estimated
12:06AM 2.7219 -55.9828 339° North  Level Estimated
12:07AM 2.8417 -56.0279 339° North  Level Estimated
12:08AM 2.9615 -56.0731 339° North  Level Estimated
12:09AM 3.0813 -56.1182 339° North  Level Estimated
12:10AM 3.2011 -56.1634 339° North  Level Estimated
12:11AM 3.3209 -56.2086 339° North  Level Estimated
12:12AM 3.4407 -56.2538 339° North  Level Estimated
12:13AM 3.5605 -56.2990 339° North  Level Estimated
12:14AM 3.6803 -56.3442 339° North  Level Estimated
12:15AM 3.8001 -56.3894 339° North  Level Estimated
12:16AM 3.9199 -56.4347 339° North  Level Estimated
12:17AM 4.0397 -56.4799 339° North  Level Estimated
12:18AM 4.1594 -56.5252 339° North  Level Estimated
12:19AM 4.2792 -56.5705 339° North  Level Estimated
12:20AM 4.3990 -56.6158 339° North  Level Estimated
12:21AM 4.5188 -56.6611 339° North  Level Estimated
12:22AM 4.6385 -56.7064 339° North  Level Estimated
12:23AM 4.7583 -56.7518 339° North  Level Estimated
12:24AM 4.8781 -56.7971 339° North  Level Estimated
12:25AM 4.9978 -56.8425 339° North  Level Estimated
12:26AM 5.1176 -56.8879 339° North  Level Estimated
12:27AM 5.2374 -56.9333 339° North  Level Estimated
12:28AM 5.3571 -56.9787 339° North  Level Estimated
12:29AM 5.4769 -57.0242 339° North  Level Estimated
12:30AM 5.5966 -57.0696 339° North  Level Estimated
12:31AM 5.7164 -57.1151 339° North  Level Estimated
12:32AM 5.8361 -57.1606 339° North  Level Estimated
12:33AM 5.9559 -57.2061 339° North  Level Estimated
12:34AM 6.0756 -57.2517 339° North  Level Estimated
12:35AM 6.1953 -57.2972 339° North  Level Estimated
12:36AM 6.3151 -57.3428 339° North  Level Estimated
12:37AM 6.4348 -57.3884 339° North  Level Estimated
12:38AM 6.5545 -57.4340 339° North  Level Estimated
12:39AM 6.6742 -57.4796 339° North  Level Estimated
12:40AM 6.7939 -57.5253 339° North  Level Estimated
12:41AM 6.9136 -57.5710 339° North  Level Estimated
12:42AM 7.0333 -57.6167 339° North  Level Estimated
12:43AM 7.1530 -57.6624 339° North  Level Estimated
12:43AM 8.2170 -59.1010 339° North 491 565 36,000  Level FlightAware
12:44AM 7.2727 -57.7082 339° North  Level Estimated
12:44AM 8.2770 -59.1320 333° Northwest 491 565 36,000  Level FlightAware
12:45AM 8.3620 -59.1730 334° Northwest 491 565 36,000  Level FlightAware
12:45AM 8.4290 -59.2060 334° Northwest 491 565 36,000  Level FlightAware
12:46AM 8.5020 -59.2410 335° Northwest 491 565 36,000  Level FlightAware
12:46AM 8.5740 -59.2770 334° Northwest 490 564 36,000  Level FlightAware
12:47AM 8.6410 -59.3100 334° Northwest 490 564 36,000  Level FlightAware
12:47AM 8.7190 -59.3480 334° Northwest 488 562 36,000  Level FlightAware
12:48AM 8.7910 -59.3840 334° Northwest 487 560 36,000  Level FlightAware
12:49AM 8.8560 -59.4160 334° Northwest 486 559 36,000  Level FlightAware
12:49AM 8.9250 -59.4600 328° Northwest 478 550 36,000  Level FlightAware
12:50AM 8.9800 -59.5230 311° West 474 545 36,000  Level FlightAware
12:50AM 9.0250 -59.5790 309° West 474 545 36,000  Level FlightAware
12:51AM 9.0680 -59.6330 309° West 473 544 36,000  Level FlightAware
12:52AM 9.1210 -59.7000 309° West 475 547 36,000  Level FlightAware
12:52AM 9.1670 -59.7580 309° West 475 547 36,000  Level FlightAware
12:53AM 9.2160 -59.8190 309° West 474 545 36,000  Level FlightAware
12:53AM 9.2670 -59.8820 309° West 475 547 36,000  Level FlightAware
12:54AM 9.3180 -59.9450 309° West 474 545 36,000  Level FlightAware
12:54AM 9.3620 -60.0000 309° West 475 547 36,000  Level FlightAware
12:55AM 9.4090 -60.0710 304° West 473 544 36,000  Level FlightAware
12:56AM 9.4400 -60.1320 297° West 473 544 36,000  Level FlightAware
12:56AM 9.4750 -60.2050 296° West 473 544 36,000  Level FlightAware
12:57AM 9.5080 -60.2770 295° West 473 544 36,000  Level FlightAware
12:57AM 9.5520 -60.3430 304° West 474 545 36,000  Level FlightAware
12:58AM 9.6010 -60.4010 311° West 475 547 36,000  Level FlightAware
12:59AM 9.6480 -60.4550 311° West 474 545 36,000  Level FlightAware
12:59AM 9.7020 -60.5170 311° West 473 544 36,000  Level FlightAware
01:00AM 9.7430 -60.5640 312° West 475 547 36,000  Level FlightAware
01:00AM 9.8010 -60.6300 312° West 474 545 36,000  Level FlightAware
01:01AM 9.8550 -60.6910 312° West 474 545 36,000  Level FlightAware
01:01AM 9.9070 -60.7510 311° West 476 548 36,000  Level FlightAware
01:02AM 9.9310 -60.7780 312° West 476 548 36,000  Level FlightAware
01:03AM 10.0030 -60.8610 311° West 477 549 36,000  Level FlightAware
01:03AM 10.0510 -60.9150 312° West 478 550 36,000  Level FlightAware
01:04AM 10.1060 -60.9780 312° West 478 550 36,000  Level FlightAware
01:04AM 10.1590 -61.0390 311° West 479 551 36,000  Level FlightAware
01:05AM 10.2120 -61.0990 312° West 481 554 36,000  Level FlightAware
01:05AM 10.2600 -61.1550 311° West 482 555 36,000  Level FlightAware
01:06AM 10.3120 -61.2150 311° West 482 555 36,000  Level FlightAware
01:07AM 10.3610 -61.2710 312° West 483 556 36,000  Level FlightAware
01:07AM 10.4130 -61.3300 312° West 483 556 36,000  Level FlightAware
01:08AM 10.4700 -61.3890 314° West 485 558 36,000  Level FlightAware
01:08AM 10.5360 -61.4340 326° Northwest 486 559 36,000  Level FlightAware
01:09AM 10.6060 -61.4760 329° Northwest 484 557 36,000  Level FlightAware
01:10AM 10.6690 -61.5130 330° Northwest 484 557 36,000  Level FlightAware
01:10AM 10.7390 -61.5540 330° Northwest 486 559 36,000  Level FlightAware
01:11AM 10.8000 -61.5910 329° Northwest 486 559 36,000  Level FlightAware
01:11AM 10.8740 -61.6350 330° Northwest 486 559 36,000  Level FlightAware
01:12AM 10.9440 -61.6770 329° Northwest 483 556 36,000  Level FlightAware
01:13AM 11.0140 -61.7190 330° Northwest 483 556 36,000  Level FlightAware
01:13AM 11.0760 -61.7560 330° Northwest 485 558 36,000  Level FlightAware
01:14AM 11.1470 -61.7990 329° Northwest 487 560 36,000  Level FlightAware
01:14AM 11.2210 -61.8430 330° Northwest 489 563 36,000  Level FlightAware
01:15AM 11.2840 -61.8800 330° Northwest 489 563 36,000  Level FlightAware
01:15AM 11.3540 -61.9230 329° Northwest 489 563 36,000  Level FlightAware
01:16AM 11.4240 -61.9650 330° Northwest 490 564 36,000  Level FlightAware
01:17AM 11.4860 -62.0020 330° Northwest 490 564 36,000  Level FlightAware
01:17AM 11.5500 -62.0410 329° Northwest 491 565 36,000  Level FlightAware
01:18AM 11.6280 -62.0890 329° Northwest 489 563 36,000  Level FlightAware
01:18AM 11.6910 -62.1430 320° Northwest 487 560 36,000  Level FlightAware
01:19AM 11.7450 -62.1900 320° Northwest 486 559 36,000  Level FlightAware
01:19AM 11.7990 -62.2390 318° Northwest 481 554 36,000  Level FlightAware
01:20AM 11.8630 -62.3080 313° West 479 551 36,000  Level FlightAware
01:21AM 11.9100 -62.3600 313° West 476 548 36,000  Level FlightAware
01:21AM 11.9600 -62.4240 309° West 474 545 36,000  Level FlightAware
01:22AM 11.9910 -62.4660 307° West 474 545 36,000  Level FlightAware
01:22AM 12.0540 -62.5500 307° West 475 547 36,000  Level FlightAware
01:23AM 12.1010 -62.6120 308° West 476 548 36,000  Level FlightAware
01:24AM 12.1440 -62.6690 308° West 476 548 36,000  Level FlightAware
01:24AM 12.1940 -62.7340 308° West 475 547 36,000  Level FlightAware
01:25AM 12.2440 -62.7970 309° West 476 548 36,000  Level FlightAware
01:25AM 12.2910 -62.8550 310° West 474 545 36,000  Level FlightAware
01:26AM 12.3420 -62.9160 311° West 474 545 36,000  Level FlightAware
01:26AM 12.3930 -62.9730 312° West 478 550 36,000  Level FlightAware
01:27AM 12.4490 -63.0220 319° Northwest 478 550 36,000  Level FlightAware
01:28AM 12.5150 -63.0720 324° Northwest 478 550 36,000  Level FlightAware
01:28AM 12.6040 -63.1240 330° Northwest 481 554 36,000  Level FlightAware
01:29AM 12.6730 -63.1650 330° Northwest 481 554 36,000  Level FlightAware
01:30AM 12.7320 -63.1990 331° Northwest 481 554 36,000  Level FlightAware
01:30AM 12.7910 -63.2340 330° Northwest 481 554 36,000  Level FlightAware
01:31AM 12.8500 -63.2690 330° Northwest 481 554 36,000  Level FlightAware
01:32AM 12.9250 -63.3140 330° Northwest 481 554 36,000  Level FlightAware
01:33AM 13.1020 -63.4190 339° North 481 554 36,000  Level FlightAware
01:34AM 13.1516 -63.4027 339° North  Level FlightAware Approximate
01:34AM 13.1610 -63.4540 330° Northwest 481 554 36,000  Level FlightAware
01:35AM 13.2200 -63.4890 330° Northwest 481 554 36,000  Level FlightAware
01:35AM 13.2790 -63.5240 330° Northwest 481 554 36,000  Level FlightAware
01:36AM 13.3380 -63.5590 330° Northwest 481 554 36,000  Level FlightAware
01:36AM 13.3970 -63.5940 330° Northwest 481 554 36,000  Level FlightAware
01:37AM 13.4560 -63.6290 330° Northwest 481 554 36,000  Level FlightAware
01:38AM 13.5150 -63.6640 330° Northwest 481 554 36,000  Level FlightAware
01:38AM 13.5740 -63.6990 330° Northwest 481 554 36,000  Level FlightAware
01:41AM 13.8577 -63.7838 344° North  Level Estimated
01:42AM 13.9847 -63.8218 344° North  Level Estimated
01:43AM 14.1118 -63.8599 344° North  Level Estimated
01:44AM 14.2388 -63.8980 344° North  Level Estimated
01:45AM 14.3658 -63.9361 344° North  Level Estimated
01:46AM 14.4928 -63.9743 344° North  Level Estimated
01:47AM 14.6198 -64.0126 344° North  Level Estimated
01:48AM 14.7468 -64.0509 344° North  Level Estimated
01:49AM 14.8702 -64.0882 344° North  Level Estimated
01:50AM 14.9937 -64.1255 344° North  Level Estimated
01:51AM 15.1171 -64.1628 344° North  Level Estimated
01:52AM 15.2406 -64.2002 344° North  Level Estimated
01:52AM 15.4500 -64.4333 344° North 470 541 36,000  Level San Juan Center
01:53AM 15.3640 -64.2377 344° North  Level Estimated
01:53AM 15.5667 -64.5000 331° Northwest 480 552 36,000  Level San Juan Center
01:54AM 15.4874 -64.2751 344° North  Level Estimated
01:54AM 15.6667 -64.5833 321° Northwest 480 552 36,000  Level San Juan Center
01:55AM 15.6109 -64.3127 344° North  Level Estimated
01:56AM 15.7343 -64.3503 344° North  Level Estimated
01:57AM 15.8577 -64.3879 344° North  Level Estimated
01:59AM 16.2840 -64.9870 321° Northwest 481 554 36,000  Level FlightAware
01:59AM 16.3400 -65.0240 328° Northwest 482 555 36,000  Level FlightAware
02:00AM 16.4140 -65.0740 327° Northwest 484 557 36,000  Level FlightAware
02:01AM 16.4810 -65.1190 327° Northwest 483 556 36,000  Level FlightAware
02:01AM 16.5560 -65.1680 328° Northwest 482 555 36,000  Level FlightAware
02:02AM 16.6290 -65.2180 327° Northwest 481 554 36,000  Level FlightAware
02:03AM 16.6870 -65.2560 328° Northwest 482 555 36,000  Level FlightAware
02:03AM 16.7510 -65.2990 327° Northwest 482 555 36,000  Level FlightAware
02:04AM 16.8220 -65.3470 327° Northwest 482 555 36,000  Level FlightAware
02:04AM 16.8790 -65.3860 327° Northwest 482 555 36,000  Level FlightAware
02:05AM 16.9360 -65.4250 327° Northwest 482 555 36,000  Level FlightAware
02:06AM 17.0510 -65.5020 327° Northwest 469 540 36,000  Level FlightAware
02:06AM 17.1220 -65.5490 328° Northwest 469 540 36,000  Level FlightAware
02:07AM 17.1840 -65.5910 327° Northwest 470 541 36,000  Level FlightAware
02:08AM 17.2460 -65.6330 327° Northwest 468 539 36,000  Level FlightAware
02:08AM 17.3130 -65.6780 327° Northwest 468 539 36,000  Level FlightAware
02:09AM 17.3690 -65.7160 327° Northwest 467 537 36,000  Level FlightAware
02:09AM 17.4390 -65.7630 327° Northwest 467 537 36,000  Level FlightAware
02:10AM 17.5040 -65.8070 327° Northwest 466 536 36,000  Level FlightAware
02:11AM 17.5640 -65.8480 327° Northwest 466 536 36,000  Level FlightAware
02:11AM 17.6320 -65.8940 327° Northwest 466 536 36,000  Level FlightAware
02:12AM 17.6930 -65.9350 327° Northwest 466 536 36,000  Level FlightAware
02:12AM 17.7590 -65.9800 327° Northwest 465 535 36,000  Level FlightAware
02:13AM 17.8250 -66.0250 327° Northwest 465 535 36,000  Level FlightAware
02:13AM 17.8810 -66.0630 327° Northwest 465 535 36,000  Level FlightAware
02:14AM 17.9480 -66.1090 327° Northwest 465 535 36,000  Level FlightAware
02:15AM 18.0130 -66.1530 327° Northwest 467 537 36,000  Level FlightAware
02:15AM 18.0780 -66.1970 327° Northwest 468 539 36,000  Level FlightAware
02:16AM 18.1360 -66.2380 326° Northwest 469 540 36,000  Level FlightAware
02:16AM 18.2050 -66.2850 327° Northwest 469 540 36,000  Level FlightAware
02:17AM 18.2700 -66.3290 327° Northwest 470 541 36,000  Level FlightAware
02:18AM 18.3290 -66.3690 327° Northwest 470 541 36,000  Level FlightAware
02:18AM 18.3950 -66.4140 327° Northwest 470 541 36,000  Level FlightAware
02:19AM 18.4600 -66.4600 326° Northwest 471 542 36,000  Level FlightAware
02:19AM 18.5230 -66.5030 327° Northwest 470 541 36,000  Level FlightAware
02:20AM 18.5890 -66.5480 327° Northwest 470 541 36,000  Level FlightAware
02:20AM 18.6460 -66.5880 326° Northwest 470 541 36,000  Level FlightAware
02:21AM 18.7110 -66.6320 327° Northwest 469 540 36,000  Level FlightAware
02:22AM 18.7750 -66.6760 327° Northwest 468 539 36,000  Level FlightAware
02:22AM 18.8310 -66.7150 327° Northwest 468 539 36,000  Level FlightAware
02:23AM 18.8960 -66.7600 327° Northwest 467 537 36,000  Level FlightAware
02:23AM 18.9470 -66.7950 327° Northwest 469 540 36,000  Level FlightAware
02:24AM 19.0200 -66.8460 327° Northwest 469 540 36,000  Level FlightAware
02:24AM 19.0850 -66.8900 327° Northwest 469 540 36,000  Level FlightAware
02:25AM 19.1500 -66.9360 326° Northwest 468 539 36,000  Level FlightAware
02:26AM 19.2160 -66.9810 327° Northwest 469 540 36,000  Level FlightAware
02:26AM 19.2680 -67.0170 327° Northwest 469 540 36,000  Level FlightAware
02:27AM 19.3250 -67.0570 326° Northwest 469 540 36,000  Level FlightAware
02:27AM 19.3880 -67.1010 327° Northwest 471 542 36,000  Level FlightAware
02:28AM 19.4550 -67.1470 327° Northwest 471 542 36,000  Level FlightAware
02:28AM 19.5170 -67.1910 326° Northwest 472 543 36,000  Level FlightAware
02:29AM 19.5790 -67.2340 327° Northwest 471 542 36,000  Level FlightAware
02:30AM 19.6470 -67.2820 326° Northwest 471 542 36,000  Level FlightAware
02:30AM 19.7090 -67.3250 327° Northwest 472 543 36,000  Level FlightAware
02:31AM 19.7680 -67.3660 327° Northwest 472 543 36,000  Level FlightAware
02:31AM 19.8380 -67.4150 327° Northwest 473 544 36,000  Level FlightAware
02:32AM 19.9000 -67.4590 326° Northwest 473 544 36,000  Level FlightAware
02:33AM 19.9700 -67.5080 327° Northwest 472 543 36,000  Level FlightAware
02:33AM 20.0270 -67.5480 327° Northwest 473 544 36,000  Level FlightAware
02:34AM 20.0950 -67.5960 326° Northwest 473 544 36,000  Level FlightAware
02:34AM 20.1600 -67.6420 326° Northwest 473 544 36,000  Level FlightAware
02:35AM 20.2240 -67.6870 327° Northwest 474 545 36,000  Level FlightAware
02:35AM 20.2840 -67.7290 327° Northwest 473 544 36,000  Level FlightAware
02:36AM 20.3500 -67.7750 327° Northwest 472 543 36,000  Level FlightAware
02:37AM 20.4190 -67.8240 326° Northwest 471 542 36,000  Level FlightAware
02:37AM 20.4740 -67.8630 326° Northwest 472 543 36,000  Level FlightAware
02:38AM 20.5480 -67.9040 333° Northwest 475 547 36,000  Level FlightAware
02:38AM 20.6160 -67.9350 337° Northwest 476 548 36,000  Level FlightAware
02:39AM 20.6900 -67.9710 336° Northwest 475 547 36,000  Level FlightAware
02:39AM 20.7520 -68.0020 335° Northwest 475 547 36,000  Level FlightAware
02:40AM 20.8260 -68.0410 334° Northwest 474 545 36,000  Level FlightAware
02:41AM 20.9290 -68.0890 336° Northwest 477 549 36,000  Level FlightAware
02:42AM 20.9960 -68.1200 337° Northwest 477 549 36,000  Level FlightAware
02:42AM 21.0770 -68.1580 336° Northwest 478 550 36,000  Level FlightAware
02:43AM 21.1390 -68.1880 336° Northwest 478 550 36,000  Level FlightAware
02:43AM 21.1970 -68.2150 337° Northwest 478 550 36,000  Level FlightAware
02:44AM 21.2590 -68.2450 336° Northwest 478 550 36,000  Level FlightAware
02:45AM 21.3230 -68.2750 336° Northwest 478 550 36,000  Level FlightAware
02:45AM 21.3860 -68.3060 335° Northwest 478 550 36,000  Level FlightAware
02:46AM 21.4480 -68.3350 336° Northwest 478 550 36,000  Level FlightAware
02:46AM 21.5060 -68.3630 336° Northwest 478 550 36,000  Level FlightAware
02:47AM 21.5680 -68.3930 336° Northwest 478 550 36,000  Level FlightAware
02:48AM 21.6300 -68.4220 337° Northwest 478 550 36,000  Level FlightAware
02:48AM 21.6920 -68.4520 336° Northwest 478 550 36,000  Level FlightAware
02:49AM 21.7540 -68.4820 336° Northwest 478 550 36,000  Level FlightAware
02:49AM 21.8150 -68.5110 336° Northwest 478 550 36,000  Level FlightAware
02:50AM 21.8790 -68.5420 336° Northwest 478 550 36,000  Level FlightAware
02:51AM 21.9410 -68.5710 337° Northwest 478 550 36,000  Level FlightAware
02:51AM 22.0030 -68.6010 336° Northwest 478 550 36,000  Level FlightAware
02:52AM 22.2564 -68.7153 336° Northwest 477 549 36,000  Level Miami Center
02:53AM 22.3764 -68.7750 335° Northwest 477 549 36,000  Level Miami Center
02:54AM 22.5025 -68.8344 336° Northwest 467 537 36,000  Level Miami Center
02:55AM 22.6244 -68.8922 336° Northwest 478 550 36,000  Level Miami Center
02:56AM 22.7464 -68.9519 336° Northwest 484 557 36,000  Level Miami Center
02:57AM 22.8767 -69.0139 336° Northwest 491 565 36,000  Level Miami Center
02:58AM 23.0006 -69.0739 336° Northwest 496 571 36,000  Level Miami Center
02:59AM 23.1269 -69.1361 336° Northwest 496 571 36,000  Level Miami Center
03:00AM 23.2531 -69.1961 336° Northwest 487 560 36,000  Level Miami Center
03:01AM 23.3772 -69.2586 335° Northwest 493 567 36,000  Level Miami Center
03:02AM 23.5011 -69.3169 337° Northwest 494 568 36,000  Level Miami Center
03:03AM 23.6314 -69.3817 336° Northwest 494 568 36,000  Level Miami Center
03:04AM 23.7553 -69.4400 337° Northwest 494 568 36,000  Level Miami Center
03:05AM 23.8861 -69.5117 333° Northwest 502 578 36,000  Level Miami Center
03:06AM 24.0097 -69.5658 338° Northwest 496 571 36,000  Level Miami Center
03:07AM 24.1358 -69.6289 335° Northwest 496 571 36,000  Level Miami Center
03:08AM 24.2642 -69.6919 336° Northwest 496 571 36,000  Level Miami Center
03:09AM 24.3944 -69.7550 336° Northwest 496 571 36,000  Level Miami Center
03:10AM 24.5228 -69.8206 335° Northwest 501 577 36,000  Level Miami Center
03:11AM 24.6508 -69.8817 337° Northwest 501 577 36,000  Level Miami Center
03:12AM 24.7792 -69.9500 334° Northwest 501 577 36,000  Level Miami Center
03:13AM 24.8817 -69.9967 338° Northwest 501 577 36,000  Level Miami Center
03:14AM 25.0000 -70.0500 348° North 491 565 36,000  Level New York Oceanic (ODAPS)
03:22AM 26.0765 -70.3011 348° North 491 565 36,000  Level FlightAware Transoceanic
03:22AM 26.0833 -70.3000 348° North 486 559 36,000  Level New York Oceanic (ODAPS)
03:23AM 26.2110 -70.3328 348° North 491 565 36,000  Level FlightAware Transoceanic
03:24AM 26.3455 -70.3646 348° North 491 565 36,000  Level FlightAware Transoceanic
03:25AM 26.4800 -70.3965 348° North 491 565 36,000  Level FlightAware Transoceanic
03:26AM 26.6145 -70.4284 348° North 491 565 36,000  Level FlightAware Transoceanic
03:27AM 26.7490 -70.4604 348° North 491 565 36,000  Level FlightAware Transoceanic
03:28AM 26.8884 -70.4917 348° North 486 559 36,000  Level FlightAware Transoceanic
03:29AM 27.0226 -70.5239 348° North 486 559 36,000  Level FlightAware Transoceanic
03:30AM 27.1567 -70.5562 348° North 486 559 36,000  Level FlightAware Transoceanic
03:31AM 27.2909 -70.5886 348° North 486 559 36,000  Level FlightAware Transoceanic
03:32AM 27.4250 -70.6210 348° North 486 559 36,000  Level FlightAware Transoceanic
03:33AM 27.5592 -70.6536 348° North 486 559 36,000  Level FlightAware Transoceanic
03:34AM 27.6933 -70.6862 348° North 486 559 36,000  Level FlightAware Transoceanic
03:35AM 27.8274 -70.7189 348° North 486 559 36,000  Level FlightAware Transoceanic
03:36AM 27.9615 -70.7516 348° North 486 559 36,000  Level FlightAware Transoceanic
03:36AM 27.9167 -70.7333 347° North 482 555 36,000  Level New York Oceanic (ODAPS)
03:37AM 28.0956 -70.7845 348° North 486 559 36,000  Level FlightAware Transoceanic
03:38AM 28.2297 -70.8174 348° North 486 559 36,000  Level FlightAware Transoceanic
03:39AM 28.3638 -70.8504 348° North 486 559 36,000  Level FlightAware Transoceanic
03:40AM 28.4978 -70.8835 348° North 486 559 36,000  Level FlightAware Transoceanic
03:41AM 28.6319 -70.9167 348° North 486 559 36,000  Level FlightAware Transoceanic
03:42AM 28.7596 -70.9473 347° North 482 555 36,000  Level FlightAware Transoceanic
03:43AM 28.9000 -70.9833 348° North 482 555 36,000  Level FlightAware Transoceanic
03:43AM 28.8500 -70.9667 344° North 475 547 36,000  Level New York Oceanic (ODAPS)
03:44AM 29.0241 -71.0138 348° North 482 555 36,000  Level FlightAware Transoceanic
03:45AM 29.1483 -71.0444 348° North 482 555 36,000  Level FlightAware Transoceanic
03:46AM 29.2724 -71.0750 348° North 482 555 36,000  Level FlightAware Transoceanic
03:47AM 29.3965 -71.1058 348° North 482 555 36,000  Level FlightAware Transoceanic
03:48AM 29.5206 -71.1365 348° North 482 555 36,000  Level FlightAware Transoceanic
03:49AM 29.6447 -71.1674 348° North 475 547 36,000  Level FlightAware Transoceanic
03:49AM 29.7167 -71.1833 348° North 471 542 36,000  Level New York Oceanic (ODAPS)
03:50AM 29.7688 -71.1983 348° North 475 547 36,000  Level FlightAware Transoceanic
03:51AM 29.8929 -71.2294 348° North 475 547 36,000  Level FlightAware Transoceanic
03:52AM 30.0170 -71.2605 348° North 475 547 36,000  Level FlightAware Transoceanic
03:53AM 30.1411 -71.2916 348° North 475 547 36,000  Level FlightAware Transoceanic
03:54AM 30.2651 -71.3229 348° North 475 547 36,000  Level FlightAware Transoceanic
03:55AM 30.3892 -71.3542 348° North 475 547 36,000  Level FlightAware Transoceanic
03:56AM 30.4703 -71.3731 348° North 471 542 36,000  Level FlightAware Transoceanic
03:57AM 30.5959 -71.4050 348° North 471 542 36,000  Level FlightAware Transoceanic
03:58AM 30.7215 -71.4370 348° North 471 542 36,000  Level FlightAware Transoceanic
03:59AM 30.8470 -71.4691 348° North 471 542 36,000  Level FlightAware Transoceanic
04:00AM 30.9726 -71.5012 348° North 471 542 36,000  Level FlightAware Transoceanic
04:01AM 31.0981 -71.5335 348° North 471 542 36,000  Level FlightAware Transoceanic
04:02AM 31.2236 -71.5658 348° North 471 542 36,000  Level FlightAware Transoceanic
04:03AM 31.3492 -71.5982 348° North 471 542 36,000  Level FlightAware Transoceanic
04:03AM 31.4500 -71.6167 347° North 451 519 36,000  Level New York Oceanic (ODAPS)
04:04AM 31.4747 -71.6307 348° North 471 542 36,000  Level FlightAware Transoceanic
04:05AM 31.6002 -71.6633 348° North 471 542 36,000  Level FlightAware Transoceanic
04:06AM 31.7257 -71.6960 347° North 471 542 36,000  Level FlightAware Transoceanic
04:07AM 31.8512 -71.7288 347° North 471 542 36,000  Level FlightAware Transoceanic
04:08AM 31.9767 -71.7616 347° North 471 542 36,000  Level FlightAware Transoceanic
04:08AM 32.0500 -71.7833 348° North 432 497 36,000  Level New York Oceanic (ODAPS)
04:09AM 32.1022 -71.7945 347° North 471 542 36,000  Level FlightAware Transoceanic
04:10AM 32.2104 -71.8176 347° North 451 519 36,000  Level FlightAware Transoceanic
04:11AM 32.3371 -71.8514 347° North 451 519 36,000  Level FlightAware Transoceanic
04:12AM 32.4638 -71.8854 347° North 451 519 36,000  Level FlightAware Transoceanic
04:13AM 32.5905 -71.9194 347° North 451 519 36,000  Level FlightAware Transoceanic
04:14AM 32.6544 -71.9424 347° North 432 497 36,000  Level FlightAware Transoceanic
04:15AM 32.7752 -71.9744 347° North 432 497 36,000  Level FlightAware Transoceanic
04:15AM 32.8667 -72.0000 347° North 505 581 36,000  Level New York Oceanic (ODAPS)
04:16AM 32.8961 -72.0066 347° North 432 497 36,000  Level FlightAware Transoceanic
04:16AM 32.8833 -72.0000 347° North 531 611 36,000  Level New York Oceanic (ODAPS)
04:17AM 33.0169 -72.0388 347° North 432 497 36,000  Level FlightAware Transoceanic
04:17AM 33.0333 -72.0500 348° North 447 514 36,000  Level New York Oceanic (ODAPS)
04:17AM 33.0333 -72.0500 348° North 447 514 36,000  Level New York Oceanic (ODAPS)
04:18AM 33.1378 -72.0712 347° North 432 497 36,000  Level FlightAware Transoceanic
04:19AM 33.2586 -72.1036 347° North 432 497 36,000  Level FlightAware Transoceanic
04:20AM 33.3794 -72.1361 347° North 432 497 36,000  Level FlightAware Transoceanic
04:21AM 33.5002 -72.1687 347° North 432 497 36,000  Level FlightAware Transoceanic
04:22AM 33.6167 -72.1992 347° North 531 611 36,000  Level FlightAware Transoceanic
04:23AM 33.7459 -72.2370 348° North 447 514 36,000  Level FlightAware Transoceanic
04:24AM 33.8646 -72.2684 348° North 447 514 36,000 -60 Level FlightAware Transoceanic
04:24AM 33.6564 -72.9961 355° North 458 527 35,900  Descending New York Center
04:25AM 33.9833 -72.3000 355° North 447 514 36,000  Climbing FlightAware Transoceanic
04:25AM 33.7525 -73.0861 322° Northwest 443 510 35,900  Descending New York Center
04:26AM 34.1019 -72.3128 355° North 447 514 36,000 60 Climbing FlightAware Transoceanic
04:26AM 33.9833 -72.3000 355° North 558 642 36,000  Level New York Oceanic (ODAPS)
04:27AM 34.2204 -72.3257 355° North 447 514 36,000  Level FlightAware Transoceanic
04:27AM 33.9833 -72.3000 355° North 449 517 36,000 -120 Level New York Oceanic (ODAPS)
04:27AM 33.9800 -73.1778 355° North 434 499 35,900  Descending New York Center
04:28AM 34.3389 -72.3386 355° North 447 514 36,000 720 Climbing FlightAware Transoceanic
04:28AM 34.0500 -72.3000 355° North 453 521 36,000 -120 Level New York Oceanic (ODAPS)
04:28AM 34.1056 -73.1614 355° North 427 491 35,900  Descending New York Center
04:29AM 34.2253 -73.1272 13° North 435 501 36,000  Climbing New York Center
04:30AM 34.3489 -73.0908 14° North 435 501 35,900  Descending New York Center
04:31AM 34.4667 -72.3500 355° North 456 525 36,000  Climbing New York Oceanic (ODAPS)
04:32AM 34.5692 -73.0267 355° North 445 512 36,000 -60 Level New York Center
04:33AM 34.7139 -72.9903 12° North 445 512 35,900 -60 Descending New York Center
04:34AM 34.8419 -72.9508 14° North 451 519 35,900  Level New York Center
04:35AM 34.9614 -72.9214 11° North 451 519 36,000  Climbing New York Center
04:36AM 35.0850 -72.8842 14° North 451 519 35,900 -60 Descending New York Center
04:37AM 35.2089 -72.8494 13° North 451 519 35,900  Level New York Center
04:38AM 35.3367 -72.8097 14° North 451 519 36,000  Climbing New York Center
04:39AM 35.4583 -72.7772 12° North 455 524 35,900 -60 Descending New York Center
04:40AM 35.5758 -72.7444 13° North 452 520 35,900  Level New York Center
04:41AM 35.7100 -72.7044 14° North 447 514 36,000  Climbing New York Center
04:42AM 35.8272 -72.6714 13° North 453 521 35,900  Descending New York Center
04:43AM 35.9489 -72.6361 13° North 448 516 36,000  Climbing New York Center
04:44AM 36.0747 -72.6006 13° North 448 516 36,000  Level New York Center
04:45AM 36.1919 -72.5647 14° North 453 521 36,000 -60 Level New York Center
04:46AM 36.3178 -72.5292 13° North 453 521 35,900 -60 Descending New York Center
04:47AM 36.4456 -72.4908 14° North 448 516 35,900  Level New York Center
04:48AM 36.5714 -72.4550 13° North 456 525 36,000  Climbing New York Center
04:49AM 36.6950 -72.4189 13° North 456 525 36,000 -60 Level New York Center
04:50AM 36.8122 -72.3931 10° North 444 511 35,900  Descending New York Center
04:51AM 36.9375 -72.3750 North 449 517 36,000 -480 Climbing New York Center
04:58AM 37.6961 -72.3183 North 446 513 32,500 -660 Descending FlightAware ADS-B
04:58AM 37.7557 -72.3463 340° North 460 529 31,900 -1,260 Descending FlightAware ADS-B
04:59AM 37.8232 -72.3785 339° North 470 541 31,200 -1,260 Descending FlightAware ADS-B
04:59AM 37.9019 -72.4162 339° North 476 548 30,400 -1,320 Descending FlightAware ADS-B
05:00AM 37.9649 -72.4462 339° North 472 543 29,700 -1,320 Descending FlightAware ADS-B
05:00AM 38.0261 -72.4754 339° North 469 540 29,100 -1,260 Descending FlightAware ADS-B
05:01AM 38.0908 -72.5063 339° North 468 539 28,400 -1,380 Descending FlightAware ADS-B
05:01AM 38.1546 -72.5369 339° North 462 532 27,700 -1,380 Descending FlightAware ADS-B
05:02AM 38.2224 -72.5695 339° North 454 522 26,900 -1,260 Descending FlightAware ADS-B
05:03AM 38.2990 -72.6060 339° North 443 510 26,100 -1,260 Descending FlightAware
05:03AM 38.3380 -72.6250 339° North 443 510 25,700 -1,380 Descending FlightAware ADS-B
05:03AM 38.3976 -72.6537 339° North 449 517 25,000 -1,320 Descending FlightAware ADS-B
05:04AM 38.4610 -72.6845 339° North 443 510 24,300 -1,260 Descending FlightAware ADS-B
05:05AM 38.5196 -72.7129 339° North 436 502 23,700 -1,200 Descending FlightAware ADS-B
05:05AM 38.5775 -72.7410 339° North 432 497 23,100 -1,200 Descending FlightAware ADS-B
05:06AM 38.6338 -72.7684 339° North 430 495 22,500 -1,320 Descending FlightAware ADS-B
05:06AM 38.6894 -72.7955 339° North 427 491 21,800 -1,320 Descending FlightAware ADS-B
05:07AM 38.7468 -72.8235 339° North 423 487 21,200 -1,200 Descending FlightAware ADS-B
05:07AM 38.8014 -72.8501 339° North 417 480 20,600 -1,140 Descending FlightAware ADS-B
05:08AM 38.8550 -72.8764 339° North 410 472 20,100 -1,140 Descending FlightAware ADS-B
05:08AM 38.9085 -72.9026 339° North 414 476 19,500 -1,200 Descending FlightAware ADS-B
05:09AM 38.9641 -72.9299 339° North 412 474 18,900 -1,200 Descending FlightAware ADS-B
05:09AM 39.0182 -72.9565 339° North 412 474 18,300 -1,140 Descending FlightAware ADS-B
05:10AM 39.0713 -72.9827 339° North 405 466 17,800 -1,140 Descending FlightAware ADS-B
05:10AM 39.1238 -73.0085 339° North 399 459 17,200 -1,200 Descending FlightAware ADS-B
05:11AM 39.1754 -73.0340 339° North 394 453 16,600 -1,140 Descending FlightAware ADS-B
05:11AM 39.2267 -73.0595 339° North 387 445 16,100 -1,140 Descending FlightAware ADS-B
05:12AM 39.2767 -73.0843 339° North 383 441 15,500 -1,140 Descending FlightAware ADS-B
05:12AM 39.3271 -73.1091 339° North 383 441 15,000 -1,080 Descending FlightAware ADS-B
05:13AM 39.3784 -73.1346 339° North 384 442 14,400 -1,140 Descending FlightAware ADS-B
05:13AM 39.4281 -73.1594 339° North 384 442 13,900 -1,140 Descending FlightAware ADS-B
05:14AM 39.4777 -73.1842 339° North 382 440 13,300 -1,080 Descending FlightAware ADS-B
05:14AM 39.5382 -73.2145 339° North 377 434 12,700 -1,020 Descending FlightAware ADS-B
05:15AM 39.6129 -73.2519 339° North 373 429 11,900 -1,080 Descending FlightAware ADS-B
05:16AM 39.6739 -73.2825 339° North 370 426 11,200 -1,080 Descending FlightAware ADS-B
05:16AM 39.7239 -73.3076 339° North 372 428 10,700 -1,020 Descending FlightAware ADS-B
05:17AM 39.7711 -73.3313 339° North 359 413 10,200 -1,080 Descending FlightAware ADS-B
05:17AM 39.8135 -73.3527 339° North 356 410 9,700 -1,140 Descending FlightAware ADS-B
05:17AM 39.8378 -73.3649 339° North 342 394 9,400 -1,140 Descending FlightAware ADS-B
05:18AM 39.8616 -73.3769 339° North 333 383 9,100 -960 Descending FlightAware ADS-B
05:18AM 39.9190 -73.4060 339° North 311 358 8,500 -840 Descending FlightAware
05:19AM 39.9901 -73.4421 338° Northwest 282 325 7,800 -780 Descending FlightAware ADS-B
05:20AM 40.0083 -73.4514 339° North 276 318 7,600 -720 Descending FlightAware ADS-B
05:20AM 40.0313 -73.4626 340° North 270 311 7,400 -600 Descending FlightAware ADS-B
05:20AM 40.0445 -73.4677 344° North 269 310 7,300 -900 Descending FlightAware ADS-B
05:20AM 40.0564 -73.4713 347° North 271 312 7,100 -720 Descending FlightAware ADS-B
05:21AM 40.0767 -73.4759 350° North 275 316 7,000 -600 Descending FlightAware ADS-B
05:21AM 40.0966 -73.4802 351° North 275 316 6,800 -420 Descending FlightAware ADS-B
05:21AM 40.1161 -73.4844 351° North 277 319 6,800  Level FlightAware ADS-B
05:22AM 40.1669 -73.4957 350° North 277 319 6,800 -660 Level FlightAware ADS-B
05:22AM 40.1992 -73.5029 350° North 274 315 6,100 -1,380 Descending FlightAware ADS-B
05:22AM 40.2234 -73.5085 350° North 273 314 5,800 -1,140 Descending FlightAware ADS-B
05:23AM 40.2597 -73.5168 350° North 270 311 5,200 -1,320 Descending FlightAware ADS-B
05:23AM 40.2795 -73.5212 350° North 269 310 4,800 -1,200 Descending FlightAware ADS-B
05:24AM 40.3023 -73.5264 350° North 267 307 4,500 -1,080 Descending FlightAware ADS-B
05:24AM 40.3213 -73.5307 350° North 264 304 4,200 -1,140 Descending FlightAware ADS-B
05:25AM 40.3770 -73.5430 350° North 258 297 3,300 -1,140 Descending FlightAware
05:25AM 40.4080 -73.5500 350° North 255 293 2,800 -1,200 Descending FlightAware
05:25AM 40.4270 -73.5550 349° North 258 297 2,500 -780 Descending FlightAware
05:26AM 40.4550 -73.5610 351° North 255 293 2,300 -720 Descending FlightAware
05:26AM 40.4810 -73.5670 350° North 252 290 2,000 -780 Descending FlightAware
05:26AM 40.5010 -73.5720 349° North 252 290 1,800 -300 Descending FlightAware
05:27AM 40.5310 -73.5780 351° North 243 280 1,800  Level FlightAware
05:27AM 40.5540 -73.5840 349° North 243 280 1,800  Level FlightAware
05:28AM 40.5760 -73.6130 315° West 192 221 1,800  Level FlightAware
05:28AM 40.5870 -73.6330 306° West 189 217 1,800 -240 Level FlightAware
05:28AM 40.5940 -73.6520 296° West 171 197 1,700 -600 Descending FlightAware
05:29AM 40.6030 -73.6710 302° West 161 185 1,400 -840 Descending FlightAware
05:29AM 40.6090 -73.6820 306° West 156 180 1,200 -780 Descending FlightAware
05:29AM 40.6150 -73.6960 299° West 143 165 1,000 -720 Descending FlightAware
05:30AM 40.6210 -73.7080 303° West 140 161 800 -840 Descending FlightAware
05:30AM 40.6270 -73.7220 299° West 140 161 500 -840 Descending FlightAware
05:30AM 40.6350 -73.7410 299° West 140 161 200 -720 Descending FlightAware
05:31AM 40.6420 -73.7550 303° West 139 160 -660 Descending FlightAware
05:31AM 40.6460 -73.7640 300° West 143 165  Level FlightAware
05:31AM 40.6520 -73.7780 299° West 76 87  Level FlightAware